CheckWX is a tool to help pilots better visualize weather data.  It is not intended as a substitute for an official pre-flight weather briefing.

10:07:43 UTC

KAPA TAF
Centennial Airport
Denver, Colorado, USA
KAPA 260530Z 2606/2706 18008KT P6SM FEW150 FM261500 25007KT P6SM FEW150 SCT220 FM262000 16014KT P6SM VCSH SCT090 BKN150 TEMPO 2620/2624 VRB20G32KT FM270100 16009KT P6SM FEW100 BKN150 FM270400 19010KT P6SM FEW150

Jun-26@
06:00 UTC

Jun-26 @ 06:00 UTC

Jun-26@
15:00 UTC

Jun-26 @ 15:00 UTC

KAPA 260530Z 2606/2706 18008KT P6SM FEW150
Wind
  • 180° at 8 KTS
Cloud Levels
  • Few at 15,000' AGL

Jun-26@
15:00 UTC

Jun-26 @ 15:00 UTC

Jun-26@
20:00 UTC

Jun-26 @ 20:00 UTC

FM261500 25007KT P6SM FEW150 SCT220

From

From Standard forecast or significant change

Wind
  • 250° at 7 KTS
Cloud Levels
  • Few at 15,000' AGL
  • Scattered at 22,000' AGL

Jun-26@
20:00 UTC

Jun-26 @ 20:00 UTC

Jun-27@
00:00 UTC

Jun-27 @ 00:00 UTC

TEMPO 2620/2624 VRB20G32KT

Temporary

Temporary Changes expected for less than half the time period

Wind
  • Variable at 20 KTS
  • {Gusting to 32 KTS

Jun-26@
20:00 UTC

Jun-26 @ 20:00 UTC

Jun-27@
01:00 UTC

Jun-27 @ 01:00 UTC

FM262000 16014KT P6SM VCSH SCT090 BKN150

From

From Standard forecast or significant change

Wind
  • 160° at 14 KTS
Cloud Levels
  • Scattered at 9,000' AGL
  • Broken at 15,000' AGL

Jun-27@
01:00 UTC

Jun-27 @ 01:00 UTC

Jun-27@
04:00 UTC

Jun-27 @ 04:00 UTC

FM270100 16009KT P6SM FEW100 BKN150

From

From Standard forecast or significant change

Wind
  • 160° at 9 KTS
Cloud Levels
  • Few at 10,000' AGL
  • Broken at 15,000' AGL

Jun-27@
04:00 UTC

Jun-27 @ 04:00 UTC

Jun-27@
06:00 UTC

Jun-27 @ 06:00 UTC

FM270400 19010KT P6SM FEW150

From

From Standard forecast or significant change

Wind
  • 190° at 10 KTS
Cloud Levels
  • Few at 15,000' AGL